Mackinaw City, MI

6:58 PM EDT on September 27, 2016 (GMT -0400)
Mackinac Bridge | | Change Station

Elev 587 ft 45.79 °N, 84.73 °W | Updated 1 minute ago

Light Rain
Light Rain
52.3 °F
Feels Like 52.3 °F
N
0.0
Wind Variable Wind from North

Today
High -- | Low -- °F
--% Chance of Precip.
Yesterday
High -- | Low -- °F
Precip. -- in
Pressure 29.65 in
Visibility 4.0 miles
Clouds Scattered Clouds 1000 ft
Mostly Cloudy 1900 ft
Overcast 4300 ft
Dew Point 49 °F
Humidity 90%
Rainfall Not available.
Snow Depth Not available.
7:32 AM 7:25 PM
Waning Crescent, 9% visible
METAR KSLH 272254Z AUTO 00000KT 4SM -RA SCT010 BKN019 OVC043 11/10 A2965 RMK AO2 T01180104
Pressure 29.65 in
Visibility 4.0 miles
Clouds Scattered Clouds 1000 ft
Mostly Cloudy 1900 ft
Overcast 4300 ft
Dew Point 49 °F
Humidity 90%
Rainfall Not available.
Snow Depth Not available.
7:32 AM 7:25 PM
Waning Crescent, 9% visible
METAR KSLH 272254Z AUTO 00000KT 4SM -RA SCT010 BKN019 OVC043 11/10 A2965 RMK AO2 T01180104

10-Day Weather Forecast

Almanac

Astronomy

Sep. 27, 2016 Rise Set
Actual Time
Civil Twilight
Nautical Twilight
Astronomical Twilight
Moon
Length of Visible Light
Length of Day
Tomorrow will be .
, % of the Moon is Illuminated

Today's Extremes

State Highs State Lows

Community

WunderPhotos

Upload Photos

1,942,174 photos uploaded!

WunderBlog® & News

Nearby

Air Quality

  Air Quality AQ Index Pollutant
Not available.

Snow Depth

Station Depth Elevation

Earthquake Activity

City Distance Mag. Time & Date
Minimum magnitude displayed is 2.5.

Coastal Water Temperatures

Place Temperature

Stations

Nearby Weather Stations

Station Location Temp. Windchill Dew Point Humidity Wind Precip. Elev Updated Type
                   

Watches & Warnings

There are currently no watches in effect.